Aviation Digital Data Service (ADDS)

Output produced by METARs form (1923 UTC 17 February 2018)
found at http://aviationweather.gov/adds/metars/
 
KPHL 171739Z 1718/1824 14008KT P6SM BKN250 
     FM172100 15008KT P6SM -SN OVC050 
     FM172200 14006KT 2SM -SN OVC010 
     FM172300 11006KT 1/2SM SN VV002 
     FM180300 08006KT 1SM -RASN BR OVC005 
     FM180500 VRB03KT 3SM BR OVC005 
     FM180700 28010KT P6SM BKN015 
     FM180900 29010G20KT P6SM SCT035 
     FM181400 28008KT P6SM SCT050